sensor_id;sensor_type;location;lat;lon;timestamp;temperature;humidity
21487;DHT22;10905;50.822;4.336;2023-04-06T00:00:56;9.90;99.90
21487;DHT22;10905;50.822;4.336;2023-04-06T00:03:21;9.90;99.90
21487;DHT22;10905;50.822;4.336;2023-04-06T00:05:47;9.90;99.90
21487;DHT22;10905;50.822;4.336;2023-04-06T00:08:13;9.90;99.90
21487;DHT22;10905;50.822;4.336;2023-04-06T00:10:39;9.90;99.90
21487;DHT22;10905;50.822;4.336;2023-04-06T00:13:06;9.90;99.90
21487;DHT22;10905;50.822;4.336;2023-04-06T00:15:32;9.90;99.90
21487;DHT22;10905;50.822;4.336;2023-04-06T00:17:57;9.90;99.90
21487;DHT22;10905;50.822;4.336;2023-04-06T00:20:23;9.90;99.90
21487;DHT22;10905;50.822;4.336;2023-04-06T00:22:49;9.90;99.90
21487;DHT22;10905;50.822;4.336;2023-04-06T00:25:15;9.90;99.90
21487;DHT22;10905;50.822;4.336;2023-04-06T00:27:41;10.00;99.90
21487;DHT22;10905;50.822;4.336;2023-04-06T00:30:08;10.00;99.90
21487;DHT22;10905;50.822;4.336;2023-04-06T00:32:34;9.90;99.90
21487;DHT22;10905;50.822;4.336;2023-04-06T00:35:05;9.80;99.90
21487;DHT22;10905;50.822;4.336;2023-04-06T00:37:31;9.90;99.90
21487;DHT22;10905;50.822;4.336;2023-04-06T00:39:57;9.90;99.90
21487;DHT22;10905;50.822;4.336;2023-04-06T00:42:24;9.90;99.90
21487;DHT22;10905;50.822;4.336;2023-04-06T00:44:58;9.80;99.90
21487;DHT22;10905;50.822;4.336;2023-04-06T00:47:25;9.70;99.90
21487;DHT22;10905;50.822;4.336;2023-04-06T00:49:52;9.80;99.90
21487;DHT22;10905;50.822;4.336;2023-04-06T00:52:19;9.80;99.90
21487;DHT22;10905;50.822;4.336;2023-04-06T00:54:45;9.80;99.90
21487;DHT22;10905;50.822;4.336;2023-04-06T00:57:12;9.80;99.90
21487;DHT22;10905;50.822;4.336;2023-04-06T00:59:38;9.80;99.90
21487;DHT22;10905;50.822;4.336;2023-04-06T01:02:04;9.80;99.90
21487;DHT22;10905;50.822;4.336;2023-04-06T01:04:30;9.70;99.90
21487;DHT22;10905;50.822;4.336;2023-04-06T01:06:56;9.70;99.90
21487;DHT22;10905;50.822;4.336;2023-04-06T01:09:22;9.70;99.90
21487;DHT22;10905;50.822;4.336;2023-04-06T01:11:48;9.80;99.90
21487;DHT22;10905;50.822;4.336;2023-04-06T01:14:13;9.70;99.90
21487;DHT22;10905;50.822;4.336;2023-04-06T01:16:40;9.70;99.90
21487;DHT22;10905;50.822;4.336;2023-04-06T01:19:10;9.70;99.90
21487;DHT22;10905;50.822;4.336;2023-04-06T01:21:40;9.70;99.90
21487;DHT22;10905;50.822;4.336;2023-04-06T01:24:07;9.60;99.90
21487;DHT22;10905;50.822;4.336;2023-04-06T01:26:33;9.60;99.90
21487;DHT22;10905;50.822;4.336;2023-04-06T01:29:00;9.60;99.90
21487;DHT22;10905;50.822;4.336;2023-04-06T01:31:25;9.60;99.90
21487;DHT22;10905;50.822;4.336;2023-04-06T01:33:52;9.70;99.90
21487;DHT22;10905;50.822;4.336;2023-04-06T01:36:17;9.60;99.90
21487;DHT22;10905;50.822;4.336;2023-04-06T01:38:43;9.50;99.90
21487;DHT22;10905;50.822;4.336;2023-04-06T01:41:09;9.40;99.90
21487;DHT22;10905;50.822;4.336;2023-04-06T01:43:35;9.30;99.90
21487;DHT22;10905;50.822;4.336;2023-04-06T01:46:01;9.30;99.90
21487;DHT22;10905;50.822;4.336;2023-04-06T01:48:27;9.20;99.90
21487;DHT22;10905;50.822;4.336;2023-04-06T01:50:53;9.20;99.90
21487;DHT22;10905;50.822;4.336;2023-04-06T01:53:19;9.20;99.90
21487;DHT22;10905;50.822;4.336;2023-04-06T01:55:45;9.10;99.90
21487;DHT22;10905;50.822;4.336;2023-04-06T01:58:12;9.10;99.90
21487;DHT22;10905;50.822;4.336;2023-04-06T02:00:38;9.20;99.90
21487;DHT22;10905;50.822;4.336;2023-04-06T02:03:03;9.20;99.90
21487;DHT22;10905;50.822;4.336;2023-04-06T02:05:30;9.20;99.90
21487;DHT22;10905;50.822;4.336;2023-04-06T02:07:56;9.20;99.90
21487;DHT22;10905;50.822;4.336;2023-04-06T02:10:22;9.10;99.90
21487;DHT22;10905;50.822;4.336;2023-04-06T02:12:49;9.00;99.90
21487;DHT22;10905;50.822;4.336;2023-04-06T02:15:15;9.00;99.90
21487;DHT22;10905;50.822;4.336;2023-04-06T02:17:41;9.00;99.90
21487;DHT22;10905;50.822;4.336;2023-04-06T02:20:07;8.90;99.90
21487;DHT22;10905;50.822;4.336;2023-04-06T02:22:34;8.90;99.90
21487;DHT22;10905;50.822;4.336;2023-04-06T02:25:00;8.80;99.90
21487;DHT22;10905;50.822;4.336;2023-04-06T02:27:26;8.90;99.90
21487;DHT22;10905;50.822;4.336;2023-04-06T02:29:52;8.80;99.90
21487;DHT22;10905;50.822;4.336;2023-04-06T02:32:17;8.80;99.90
21487;DHT22;10905;50.822;4.336;2023-04-06T02:34:43;8.80;99.90
21487;DHT22;10905;50.822;4.336;2023-04-06T02:37:09;8.90;99.90
21487;DHT22;10905;50.822;4.336;2023-04-06T02:39:34;8.90;99.90
21487;DHT22;10905;50.822;4.336;2023-04-06T02:42:00;8.90;99.90
21487;DHT22;10905;50.822;4.336;2023-04-06T02:44:26;8.90;99.90
21487;DHT22;10905;50.822;4.336;2023-04-06T02:46:51;8.90;99.90
21487;DHT22;10905;50.822;4.336;2023-04-06T02:49:17;8.90;99.90
21487;DHT22;10905;50.822;4.336;2023-04-06T02:51:43;8.90;99.90
21487;DHT22;10905;50.822;4.336;2023-04-06T02:54:08;8.90;99.90
21487;DHT22;10905;50.822;4.336;2023-04-06T02:56:34;8.90;99.90
21487;DHT22;10905;50.822;4.336;2023-04-06T02:59:00;8.90;99.90
21487;DHT22;10905;50.822;4.336;2023-04-06T03:01:26;8.90;99.90
21487;DHT22;10905;50.822;4.336;2023-04-06T03:03:52;9.00;99.90
21487;DHT22;10905;50.822;4.336;2023-04-06T03:06:17;9.00;99.90
21487;DHT22;10905;50.822;4.336;2023-04-06T03:08:43;8.90;99.90
21487;DHT22;10905;50.822;4.336;2023-04-06T03:11:09;8.90;99.90
21487;DHT22;10905;50.822;4.336;2023-04-06T03:13:35;8.80;99.90
21487;DHT22;10905;50.822;4.336;2023-04-06T03:16:01;8.80;99.90
21487;DHT22;10905;50.822;4.336;2023-04-06T03:18:26;8.70;99.90
21487;DHT22;10905;50.822;4.336;2023-04-06T03:20:52;8.70;99.90
21487;DHT22;10905;50.822;4.336;2023-04-06T03:23:21;8.70;99.90
21487;DHT22;10905;50.822;4.336;2023-04-06T03:25:46;8.70;99.90
21487;DHT22;10905;50.822;4.336;2023-04-06T03:28:12;8.70;99.90
21487;DHT22;10905;50.822;4.336;2023-04-06T03:30:38;8.70;99.90
21487;DHT22;10905;50.822;4.336;2023-04-06T03:33:03;8.80;99.90
21487;DHT22;10905;50.822;4.336;2023-04-06T03:35:29;8.90;99.90
21487;DHT22;10905;50.822;4.336;2023-04-06T03:37:55;8.80;99.90
21487;DHT22;10905;50.822;4.336;2023-04-06T03:40:21;8.70;99.90
21487;DHT22;10905;50.822;4.336;2023-04-06T03:42:46;8.80;99.90
21487;DHT22;10905;50.822;4.336;2023-04-06T03:45:12;8.80;99.90
21487;DHT22;10905;50.822;4.336;2023-04-06T03:47:40;8.90;99.90
21487;DHT22;10905;50.822;4.336;2023-04-06T03:50:06;8.90;99.90
21487;DHT22;10905;50.822;4.336;2023-04-06T03:52:32;8.90;99.90
21487;DHT22;10905;50.822;4.336;2023-04-06T03:54:58;8.80;99.90
21487;DHT22;10905;50.822;4.336;2023-04-06T03:57:23;8.80;99.90
21487;DHT22;10905;50.822;4.336;2023-04-06T03:59:49;8.80;99.90
21487;DHT22;10905;50.822;4.336;2023-04-06T04:02:18;8.80;99.90
21487;DHT22;10905;50.822;4.336;2023-04-06T04:04:43;8.80;99.90
21487;DHT22;10905;50.822;4.336;2023-04-06T04:07:09;8.90;99.90
21487;DHT22;10905;50.822;4.336;2023-04-06T04:09:35;9.00;99.90
21487;DHT22;10905;50.822;4.336;2023-04-06T04:12:01;9.00;99.90
21487;DHT22;10905;50.822;4.336;2023-04-06T04:14:26;8.90;99.90
21487;DHT22;10905;50.822;4.336;2023-04-06T04:16:52;9.00;99.90
21487;DHT22;10905;50.822;4.336;2023-04-06T04:19:18;9.00;99.90
21487;DHT22;10905;50.822;4.336;2023-04-06T04:21:44;9.00;99.90
21487;DHT22;10905;50.822;4.336;2023-04-06T04:24:11;9.00;99.90
21487;DHT22;10905;50.822;4.336;2023-04-06T04:26:37;9.00;99.90
21487;DHT22;10905;50.822;4.336;2023-04-06T04:29:03;9.10;99.90
21487;DHT22;10905;50.822;4.336;2023-04-06T04:31:29;9.20;99.90
21487;DHT22;10905;50.822;4.336;2023-04-06T04:33:55;9.30;99.90
21487;DHT22;10905;50.822;4.336;2023-04-06T04:36:20;9.30;99.90
21487;DHT22;10905;50.822;4.336;2023-04-06T04:38:46;9.20;99.90
21487;DHT22;10905;50.822;4.336;2023-04-06T04:41:12;9.30;99.90
21487;DHT22;10905;50.822;4.336;2023-04-06T04:43:37;9.20;99.90
21487;DHT22;10905;50.822;4.336;2023-04-06T04:46:04;9.30;99.90
21487;DHT22;10905;50.822;4.336;2023-04-06T04:48:30;9.30;99.90
21487;DHT22;10905;50.822;4.336;2023-04-06T04:50:56;9.30;99.90
21487;DHT22;10905;50.822;4.336;2023-04-06T04:53:21;9.30;99.90
21487;DHT22;10905;50.822;4.336;2023-04-06T04:55:48;9.20;99.90
21487;DHT22;10905;50.822;4.336;2023-04-06T04:58:13;9.20;99.90
21487;DHT22;10905;50.822;4.336;2023-04-06T05:00:51;9.40;99.90
21487;DHT22;10905;50.822;4.336;2023-04-06T05:03:24;9.40;99.90
21487;DHT22;10905;50.822;4.336;2023-04-06T05:05:51;9.30;99.90
21487;DHT22;10905;50.822;4.336;2023-04-06T05:08:16;9.40;99.90
21487;DHT22;10905;50.822;4.336;2023-04-06T05:10:42;9.50;99.90
21487;DHT22;10905;50.822;4.336;2023-04-06T05:13:09;9.50;99.90
21487;DHT22;10905;50.822;4.336;2023-04-06T05:15:35;9.50;99.90
21487;DHT22;10905;50.822;4.336;2023-04-06T05:18:04;9.40;99.90
21487;DHT22;10905;50.822;4.336;2023-04-06T05:20:29;9.20;99.90
21487;DHT22;10905;50.822;4.336;2023-04-06T05:22:55;9.20;99.90
21487;DHT22;10905;50.822;4.336;2023-04-06T05:25:21;9.30;99.90
21487;DHT22;10905;50.822;4.336;2023-04-06T05:27:46;9.30;99.90
21487;DHT22;10905;50.822;4.336;2023-04-06T05:30:12;9.30;99.90
21487;DHT22;10905;50.822;4.336;2023-04-06T05:32:38;9.40;99.90
21487;DHT22;10905;50.822;4.336;2023-04-06T05:35:04;9.30;99.90
21487;DHT22;10905;50.822;4.336;2023-04-06T05:37:30;9.40;99.90
21487;DHT22;10905;50.822;4.336;2023-04-06T05:39:56;9.40;99.90
21487;DHT22;10905;50.822;4.336;2023-04-06T05:42:22;9.50;99.90
21487;DHT22;10905;50.822;4.336;2023-04-06T05:44:48;9.50;99.90
21487;DHT22;10905;50.822;4.336;2023-04-06T05:47:13;9.50;99.90
21487;DHT22;10905;50.822;4.336;2023-04-06T05:49:41;9.50;99.90
21487;DHT22;10905;50.822;4.336;2023-04-06T05:52:06;9.50;99.90
21487;DHT22;10905;50.822;4.336;2023-04-06T05:54:32;9.60;99.90
21487;DHT22;10905;50.822;4.336;2023-04-06T05:56:58;9.60;99.90
21487;DHT22;10905;50.822;4.336;2023-04-06T05:59:23;9.70;99.90
21487;DHT22;10905;50.822;4.336;2023-04-06T06:01:49;9.80;99.90
21487;DHT22;10905;50.822;4.336;2023-04-06T06:04:15;9.80;99.90
21487;DHT22;10905;50.822;4.336;2023-04-06T06:06:41;9.80;99.90
21487;DHT22;10905;50.822;4.336;2023-04-06T06:09:06;9.80;99.90
21487;DHT22;10905;50.822;4.336;2023-04-06T06:11:32;9.80;99.90
21487;DHT22;10905;50.822;4.336;2023-04-06T06:13:58;9.90;99.90
21487;DHT22;10905;50.822;4.336;2023-04-06T06:16:24;9.90;99.90
21487;DHT22;10905;50.822;4.336;2023-04-06T06:18:49;9.90;99.90
21487;DHT22;10905;50.822;4.336;2023-04-06T06:21:15;9.90;99.90
21487;DHT22;10905;50.822;4.336;2023-04-06T06:23:42;9.80;99.90
21487;DHT22;10905;50.822;4.336;2023-04-06T06:26:08;9.90;99.90
21487;DHT22;10905;50.822;4.336;2023-04-06T06:28:34;9.90;99.90
21487;DHT22;10905;50.822;4.336;2023-04-06T06:31:00;9.90;99.90
21487;DHT22;10905;50.822;4.336;2023-04-06T06:33:26;9.90;99.90
21487;DHT22;10905;50.822;4.336;2023-04-06T06:35:52;9.90;99.90
21487;DHT22;10905;50.822;4.336;2023-04-06T06:38:18;9.90;99.90
21487;DHT22;10905;50.822;4.336;2023-04-06T06:40:45;9.90;99.90
21487;DHT22;10905;50.822;4.336;2023-04-06T06:43:11;9.80;99.90
21487;DHT22;10905;50.822;4.336;2023-04-06T06:45:37;9.70;99.90
21487;DHT22;10905;50.822;4.336;2023-04-06T06:48:02;9.60;99.90
21487;DHT22;10905;50.822;4.336;2023-04-06T06:50:28;9.70;99.90
21487;DHT22;10905;50.822;4.336;2023-04-06T06:52:54;9.60;99.90
21487;DHT22;10905;50.822;4.336;2023-04-06T06:55:20;9.50;99.90
21487;DHT22;10905;50.822;4.336;2023-04-06T06:57:45;9.50;99.90
21487;DHT22;10905;50.822;4.336;2023-04-06T07:00:12;9.50;99.90
21487;DHT22;10905;50.822;4.336;2023-04-06T07:02:38;9.50;99.90
21487;DHT22;10905;50.822;4.336;2023-04-06T07:05:05;9.60;99.90
21487;DHT22;10905;50.822;4.336;2023-04-06T07:07:33;9.60;99.90
21487;DHT22;10905;50.822;4.336;2023-04-06T07:10:00;9.70;99.90
21487;DHT22;10905;50.822;4.336;2023-04-06T07:12:26;9.60;99.90
21487;DHT22;10905;50.822;4.336;2023-04-06T07:14:52;9.50;99.90
21487;DHT22;10905;50.822;4.336;2023-04-06T07:17:18;9.60;99.90
21487;DHT22;10905;50.822;4.336;2023-04-06T07:19:44;9.50;99.90
21487;DHT22;10905;50.822;4.336;2023-04-06T07:22:11;9.50;99.90
21487;DHT22;10905;50.822;4.336;2023-04-06T07:24:37;9.60;99.90
21487;DHT22;10905;50.822;4.336;2023-04-06T07:27:02;9.50;99.90
21487;DHT22;10905;50.822;4.336;2023-04-06T07:29:28;9.50;99.90
21487;DHT22;10905;50.822;4.336;2023-04-06T07:31:54;9.40;99.90
21487;DHT22;10905;50.822;4.336;2023-04-06T07:34:21;9.50;99.90
21487;DHT22;10905;50.822;4.336;2023-04-06T07:36:46;9.50;99.90
21487;DHT22;10905;50.822;4.336;2023-04-06T07:39:12;9.40;99.90
21487;DHT22;10905;50.822;4.336;2023-04-06T07:41:38;9.50;99.90
21487;DHT22;10905;50.822;4.336;2023-04-06T07:44:04;9.60;99.90
21487;DHT22;10905;50.822;4.336;2023-04-06T07:46:30;9.70;99.90
21487;DHT22;10905;50.822;4.336;2023-04-06T07:49:00;9.70;99.90
21487;DHT22;10905;50.822;4.336;2023-04-06T07:51:26;9.70;99.90
21487;DHT22;10905;50.822;4.336;2023-04-06T07:53:52;9.70;99.90
21487;DHT22;10905;50.822;4.336;2023-04-06T07:56:18;9.80;99.90
21487;DHT22;10905;50.822;4.336;2023-04-06T07:58:43;9.80;99.90
21487;DHT22;10905;50.822;4.336;2023-04-06T08:01:09;9.80;99.90
21487;DHT22;10905;50.822;4.336;2023-04-06T08:03:36;9.80;99.90
21487;DHT22;10905;50.822;4.336;2023-04-06T08:06:02;9.90;99.90
21487;DHT22;10905;50.822;4.336;2023-04-06T08:08:28;9.80;99.90
21487;DHT22;10905;50.822;4.336;2023-04-06T08:10:54;9.90;99.90
21487;DHT22;10905;50.822;4.336;2023-04-06T08:13:20;9.90;99.90
21487;DHT22;10905;50.822;4.336;2023-04-06T08:15:46;9.90;99.90
21487;DHT22;10905;50.822;4.336;2023-04-06T08:18:12;9.90;99.90
21487;DHT22;10905;50.822;4.336;2023-04-06T08:20:39;9.90;99.90
21487;DHT22;10905;50.822;4.336;2023-04-06T08:23:04;9.90;99.90
21487;DHT22;10905;50.822;4.336;2023-04-06T08:25:30;9.90;99.90
21487;DHT22;10905;50.822;4.336;2023-04-06T08:27:56;9.80;99.90
21487;DHT22;10905;50.822;4.336;2023-04-06T08:30:21;9.80;99.90
21487;DHT22;10905;50.822;4.336;2023-04-06T08:32:47;9.80;99.90
21487;DHT22;10905;50.822;4.336;2023-04-06T08:35:13;9.80;99.90
21487;DHT22;10905;50.822;4.336;2023-04-06T08:37:39;9.80;99.90
21487;DHT22;10905;50.822;4.336;2023-04-06T08:40:05;9.80;99.90
21487;DHT22;10905;50.822;4.336;2023-04-06T08:42:39;9.70;99.90
21487;DHT22;10905;50.822;4.336;2023-04-06T08:45:07;9.70;99.90
21487;DHT22;10905;50.822;4.336;2023-04-06T08:47:34;9.70;99.90
21487;DHT22;10905;50.822;4.336;2023-04-06T08:50:04;9.70;99.90
21487;DHT22;10905;50.822;4.336;2023-04-06T08:52:32;9.70;99.90
21487;DHT22;10905;50.822;4.336;2023-04-06T08:54:57;9.80;99.90
21487;DHT22;10905;50.822;4.336;2023-04-06T08:57:24;9.70;99.90
21487;DHT22;10905;50.822;4.336;2023-04-06T08:59:51;9.70;99.90
21487;DHT22;10905;50.822;4.336;2023-04-06T09:02:18;9.80;99.90
21487;DHT22;10905;50.822;4.336;2023-04-06T09:04:53;9.90;99.90
21487;DHT22;10905;50.822;4.336;2023-04-06T09:07:19;10.00;99.90
21487;DHT22;10905;50.822;4.336;2023-04-06T09:09:45;10.00;99.90
21487;DHT22;10905;50.822;4.336;2023-04-06T09:14:48;10.20;99.90
21487;DHT22;10905;50.822;4.336;2023-04-06T09:17:40;10.20;99.90
21487;DHT22;10905;50.822;4.336;2023-04-06T09:20:09;10.40;99.90
21487;DHT22;10905;50.822;4.336;2023-04-06T09:22:40;10.40;99.90
21487;DHT22;10905;50.822;4.336;2023-04-06T09:25:08;10.30;99.90
21487;DHT22;10905;50.822;4.336;2023-04-06T09:27:36;10.20;99.90
21487;DHT22;10905;50.822;4.336;2023-04-06T09:30:07;10.20;99.90
21487;DHT22;10905;50.822;4.336;2023-04-06T09:33:02;10.20;99.90
21487;DHT22;10905;50.822;4.336;2023-04-06T09:35:27;10.30;99.90
21487;DHT22;10905;50.822;4.336;2023-04-06T09:37:55;10.30;99.90
21487;DHT22;10905;50.822;4.336;2023-04-06T09:40:21;10.20;99.90
21487;DHT22;10905;50.822;4.336;2023-04-06T09:42:48;10.20;99.90
21487;DHT22;10905;50.822;4.336;2023-04-06T09:45:16;10.20;99.90
21487;DHT22;10905;50.822;4.336;2023-04-06T09:47:45;10.30;99.90
21487;DHT22;10905;50.822;4.336;2023-04-06T09:50:14;10.30;99.90
21487;DHT22;10905;50.822;4.336;2023-04-06T09:55:11;10.20;99.90
21487;DHT22;10905;50.822;4.336;2023-04-06T09:57:45;10.10;99.90
21487;DHT22;10905;50.822;4.336;2023-04-06T10:00:17;10.10;99.90
21487;DHT22;10905;50.822;4.336;2023-04-06T10:05:37;10.00;99.90
21487;DHT22;10905;50.822;4.336;2023-04-06T10:08:06;10.10;99.90
21487;DHT22;10905;50.822;4.336;2023-04-06T10:10:34;10.10;99.90
21487;DHT22;10905;50.822;4.336;2023-04-06T10:13:00;10.20;99.90
21487;DHT22;10905;50.822;4.336;2023-04-06T10:15:28;10.20;99.90
21487;DHT22;10905;50.822;4.336;2023-04-06T10:17:54;10.20;99.90
21487;DHT22;10905;50.822;4.336;2023-04-06T10:20:25;10.20;99.90
21487;DHT22;10905;50.822;4.336;2023-04-06T10:25:33;10.30;99.90
21487;DHT22;10905;50.822;4.336;2023-04-06T10:28:09;10.40;99.90
21487;DHT22;10905;50.822;4.336;2023-04-06T10:30:42;10.50;99.90
21487;DHT22;10905;50.822;4.336;2023-04-06T10:33:19;10.50;99.90
21487;DHT22;10905;50.822;4.336;2023-04-06T10:35:45;10.50;99.90
21487;DHT22;10905;50.822;4.336;2023-04-06T10:38:11;10.50;99.90
21487;DHT22;10905;50.822;4.336;2023-04-06T10:40:40;10.60;99.90
21487;DHT22;10905;50.822;4.336;2023-04-06T10:43:20;10.70;99.90
21487;DHT22;10905;50.822;4.336;2023-04-06T10:45:56;10.70;99.90
21487;DHT22;10905;50.822;4.336;2023-04-06T10:48:22;10.70;99.90
21487;DHT22;10905;50.822;4.336;2023-04-06T10:50:53;10.70;99.90
21487;DHT22;10905;50.822;4.336;2023-04-06T10:53:23;10.70;99.90
21487;DHT22;10905;50.822;4.336;2023-04-06T10:55:51;10.70;99.90
21487;DHT22;10905;50.822;4.336;2023-04-06T10:58:17;10.70;99.90
21487;DHT22;10905;50.822;4.336;2023-04-06T11:00:47;10.70;99.90
21487;DHT22;10905;50.822;4.336;2023-04-06T11:03:13;10.70;99.90
21487;DHT22;10905;50.822;4.336;2023-04-06T11:05:46;10.70;99.90
21487;DHT22;10905;50.822;4.336;2023-04-06T11:08:32;10.70;99.90
21487;DHT22;10905;50.822;4.336;2023-04-06T11:11:06;10.80;99.90
21487;DHT22;10905;50.822;4.336;2023-04-06T11:16:16;11.10;99.90
21487;DHT22;10905;50.822;4.336;2023-04-06T11:18:50;11.10;99.90
21487;DHT22;10905;50.822;4.336;2023-04-06T11:21:16;11.30;99.90
21487;DHT22;10905;50.822;4.336;2023-04-06T11:23:42;11.30;99.90
21487;DHT22;10905;50.822;4.336;2023-04-06T11:26:12;11.20;99.90
21487;DHT22;10905;50.822;4.336;2023-04-06T11:28:39;11.10;99.90
21487;DHT22;10905;50.822;4.336;2023-04-06T11:31:05;11.00;99.90
21487;DHT22;10905;50.822;4.336;2023-04-06T11:33:36;11.10;99.90
21487;DHT22;10905;50.822;4.336;2023-04-06T11:36:05;11.00;99.90
21487;DHT22;10905;50.822;4.336;2023-04-06T11:38:31;11.00;99.90
21487;DHT22;10905;50.822;4.336;2023-04-06T11:40:57;11.10;99.90
21487;DHT22;10905;50.822;4.336;2023-04-06T11:43:29;11.20;99.90
21487;DHT22;10905;50.822;4.336;2023-04-06T11:46:03;11.40;99.90
21487;DHT22;10905;50.822;4.336;2023-04-06T11:48:30;11.30;99.90
21487;DHT22;10905;50.822;4.336;2023-04-06T11:50:59;11.30;99.90
21487;DHT22;10905;50.822;4.336;2023-04-06T11:53:27;11.20;99.90
21487;DHT22;10905;50.822;4.336;2023-04-06T11:55:53;11.10;99.90
21487;DHT22;10905;50.822;4.336;2023-04-06T11:58:19;11.30;99.90
21487;DHT22;10905;50.822;4.336;2023-04-06T12:00:45;11.40;99.90
21487;DHT22;10905;50.822;4.336;2023-04-06T12:03:14;11.50;99.90
21487;DHT22;10905;50.822;4.336;2023-04-06T12:05:40;11.60;99.90
21487;DHT22;10905;50.822;4.336;2023-04-06T12:08:06;11.60;99.90
21487;DHT22;10905;50.822;4.336;2023-04-06T12:10:32;11.80;99.90
21487;DHT22;10905;50.822;4.336;2023-04-06T12:12:57;11.70;99.90
21487;DHT22;10905;50.822;4.336;2023-04-06T12:15:23;11.70;99.90
21487;DHT22;10905;50.822;4.336;2023-04-06T12:17:49;11.60;99.90
21487;DHT22;10905;50.822;4.336;2023-04-06T12:20:17;11.60;99.90
21487;DHT22;10905;50.822;4.336;2023-04-06T12:22:43;11.60;99.90
21487;DHT22;10905;50.822;4.336;2023-04-06T12:25:09;11.40;99.90
21487;DHT22;10905;50.822;4.336;2023-04-06T12:27:34;11.40;99.90
21487;DHT22;10905;50.822;4.336;2023-04-06T12:30:00;11.30;99.90
21487;DHT22;10905;50.822;4.336;2023-04-06T12:32:27;11.20;99.90
21487;DHT22;10905;50.822;4.336;2023-04-06T12:34:53;11.20;99.90
21487;DHT22;10905;50.822;4.336;2023-04-06T12:37:18;11.20;99.90
21487;DHT22;10905;50.822;4.336;2023-04-06T12:39:44;11.30;99.90
21487;DHT22;10905;50.822;4.336;2023-04-06T12:42:11;11.30;99.90
21487;DHT22;10905;50.822;4.336;2023-04-06T12:44:38;11.30;99.90
21487;DHT22;10905;50.822;4.336;2023-04-06T12:47:03;11.30;99.90
21487;DHT22;10905;50.822;4.336;2023-04-06T12:49:30;11.10;99.90
21487;DHT22;10905;50.822;4.336;2023-04-06T12:51:55;11.00;99.90
21487;DHT22;10905;50.822;4.336;2023-04-06T12:54:21;10.90;99.90
21487;DHT22;10905;50.822;4.336;2023-04-06T12:56:47;10.80;99.90
21487;DHT22;10905;50.822;4.336;2023-04-06T12:59:13;10.70;99.90
21487;DHT22;10905;50.822;4.336;2023-04-06T13:01:38;10.70;99.90
21487;DHT22;10905;50.822;4.336;2023-04-06T13:04:04;10.70;99.90
21487;DHT22;10905;50.822;4.336;2023-04-06T13:06:29;10.70;99.90
21487;DHT22;10905;50.822;4.336;2023-04-06T13:08:55;10.60;99.90
21487;DHT22;10905;50.822;4.336;2023-04-06T13:11:21;10.50;99.90
21487;DHT22;10905;50.822;4.336;2023-04-06T13:13:49;10.70;99.90
21487;DHT22;10905;50.822;4.336;2023-04-06T13:16:15;10.70;99.90
21487;DHT22;10905;50.822;4.336;2023-04-06T13:18:41;10.60;99.90
21487;DHT22;10905;50.822;4.336;2023-04-06T13:21:07;10.60;99.90
21487;DHT22;10905;50.822;4.336;2023-04-06T13:23:34;10.70;99.90
21487;DHT22;10905;50.822;4.336;2023-04-06T13:26:05;10.80;99.90
21487;DHT22;10905;50.822;4.336;2023-04-06T13:28:33;10.70;99.90
21487;DHT22;10905;50.822;4.336;2023-04-06T13:31:00;10.70;99.90
21487;DHT22;10905;50.822;4.336;2023-04-06T13:33:27;10.70;99.90
21487;DHT22;10905;50.822;4.336;2023-04-06T13:35:53;10.80;99.90
21487;DHT22;10905;50.822;4.336;2023-04-06T13:38:18;10.90;99.90
21487;DHT22;10905;50.822;4.336;2023-04-06T13:40:44;10.90;99.90
21487;DHT22;10905;50.822;4.336;2023-04-06T13:43:10;10.90;99.90
21487;DHT22;10905;50.822;4.336;2023-04-06T13:45:37;10.90;99.90
21487;DHT22;10905;50.822;4.336;2023-04-06T13:48:03;10.90;99.90
21487;DHT22;10905;50.822;4.336;2023-04-06T13:50:29;10.90;99.90
21487;DHT22;10905;50.822;4.336;2023-04-06T13:52:55;10.90;99.90
21487;DHT22;10905;50.822;4.336;2023-04-06T13:55:21;10.90;99.90
21487;DHT22;10905;50.822;4.336;2023-04-06T13:57:46;10.90;99.90
21487;DHT22;10905;50.822;4.336;2023-04-06T14:00:12;10.80;99.90
21487;DHT22;10905;50.822;4.336;2023-04-06T14:02:40;10.80;99.90
21487;DHT22;10905;50.822;4.336;2023-04-06T14:05:06;10.90;99.90
21487;DHT22;10905;50.822;4.336;2023-04-06T14:07:32;10.80;99.90
21487;DHT22;10905;50.822;4.336;2023-04-06T14:09:57;10.70;99.90
21487;DHT22;10905;50.822;4.336;2023-04-06T14:12:23;10.70;99.90
21487;DHT22;10905;50.822;4.336;2023-04-06T14:14:49;10.80;99.90
21487;DHT22;10905;50.822;4.336;2023-04-06T14:17:15;11.00;99.90
21487;DHT22;10905;50.822;4.336;2023-04-06T14:19:41;11.00;99.90
21487;DHT22;10905;50.822;4.336;2023-04-06T14:22:06;11.10;99.90
21487;DHT22;10905;50.822;4.336;2023-04-06T14:24:33;11.10;99.90
21487;DHT22;10905;50.822;4.336;2023-04-06T14:27:01;11.20;99.90
21487;DHT22;10905;50.822;4.336;2023-04-06T14:29:28;11.20;99.90
21487;DHT22;10905;50.822;4.336;2023-04-06T14:31:53;11.00;99.90
21487;DHT22;10905;50.822;4.336;2023-04-06T14:34:28;11.00;99.90
21487;DHT22;10905;50.822;4.336;2023-04-06T14:36:53;10.90;99.90
21487;DHT22;10905;50.822;4.336;2023-04-06T14:39:19;11.00;99.90
21487;DHT22;10905;50.822;4.336;2023-04-06T14:41:44;10.90;99.90
21487;DHT22;10905;50.822;4.336;2023-04-06T14:44:10;11.00;99.90
21487;DHT22;10905;50.822;4.336;2023-04-06T14:46:37;11.00;99.90
21487;DHT22;10905;50.822;4.336;2023-04-06T14:49:03;11.20;99.90
21487;DHT22;10905;50.822;4.336;2023-04-06T14:51:29;11.40;99.90
21487;DHT22;10905;50.822;4.336;2023-04-06T14:53:56;11.50;99.90
21487;DHT22;10905;50.822;4.336;2023-04-06T14:56:25;11.50;99.90
21487;DHT22;10905;50.822;4.336;2023-04-06T14:58:51;11.50;99.90
21487;DHT22;10905;50.822;4.336;2023-04-06T15:01:18;11.50;99.90
21487;DHT22;10905;50.822;4.336;2023-04-06T15:03:44;11.50;99.90
21487;DHT22;10905;50.822;4.336;2023-04-06T15:06:14;11.40;99.90
21487;DHT22;10905;50.822;4.336;2023-04-06T15:08:41;11.40;99.90
21487;DHT22;10905;50.822;4.336;2023-04-06T15:11:07;11.40;99.90
21487;DHT22;10905;50.822;4.336;2023-04-06T15:13:32;11.50;99.90
21487;DHT22;10905;50.822;4.336;2023-04-06T15:15:58;11.50;99.90
21487;DHT22;10905;50.822;4.336;2023-04-06T15:18:23;11.50;99.90
21487;DHT22;10905;50.822;4.336;2023-04-06T15:20:49;11.60;99.90
21487;DHT22;10905;50.822;4.336;2023-04-06T15:23:15;11.70;99.90
21487;DHT22;10905;50.822;4.336;2023-04-06T15:25:41;11.80;99.90
21487;DHT22;10905;50.822;4.336;2023-04-06T15:28:07;11.90;99.90
21487;DHT22;10905;50.822;4.336;2023-04-06T15:30:34;11.90;99.90
21487;DHT22;10905;50.822;4.336;2023-04-06T15:33:00;12.00;99.90
21487;DHT22;10905;50.822;4.336;2023-04-06T15:35:27;12.00;99.90
21487;DHT22;10905;50.822;4.336;2023-04-06T15:37:54;11.80;99.90
21487;DHT22;10905;50.822;4.336;2023-04-06T15:40:20;11.80;99.90
21487;DHT22;10905;50.822;4.336;2023-04-06T15:42:45;11.80;99.90
21487;DHT22;10905;50.822;4.336;2023-04-06T15:45:11;11.80;99.90
21487;DHT22;10905;50.822;4.336;2023-04-06T15:47:38;11.80;99.90
21487;DHT22;10905;50.822;4.336;2023-04-06T15:50:04;11.80;99.90